Time;durP1;ratioP1;P1;durP2;ratioP2;P2;SDS_P1;SDS_P2;PMS_P1;PMS_P2;Temp;Humidity;BMP_temperature;BMP_pressure;BME280_temperature;BME280_humidity;BME280_pressure;Samples;Min_cycle;Max_cycle;Signal;HPM_P1;HPM_P2
2022/01/04 00:01:38;;;;;;;1999.90;999.90;;;8.70;99.90;;;;;;5052708;28;20176;-72
2022/01/04 00:04:03;;;;;;;1999.90;999.90;;;8.70;99.90;;;;;;5052492;28;20548;-72
2022/01/04 00:06:29;;;;;;;1999.90;999.90;;;8.70;99.90;;;;;;5052716;28;20184;-72
2022/01/04 00:08:59;;;;;;;1999.90;999.90;;;8.70;99.90;;;;;;5052740;28;20199;-70
2022/01/04 00:11:42;;;;;;;1999.90;999.90;;;8.70;99.90;;;;;;5052672;28;20584;-72
2022/01/04 00:14:08;;;;;;;1999.90;999.90;;;8.60;99.90;;;;;;5052423;28;20549;-72
2022/01/04 00:16:34;;;;;;;1999.90;999.90;;;8.60;99.90;;;;;;5052664;28;20442;-72
2022/01/04 00:19:00;;;;;;;1999.90;999.90;;;8.60;99.90;;;;;;5052291;28;20875;-72
2022/01/04 00:21:25;;;;;;;1999.90;999.90;;;8.70;99.90;;;;;;5052423;28;20167;-72
2022/01/04 00:23:51;;;;;;;1999.90;999.90;;;8.70;99.90;;;;;;5052580;28;20169;-71
2022/01/04 00:26:16;;;;;;;1999.90;999.90;;;8.70;99.90;;;;;;5052163;28;20183;-72
2022/01/04 00:28:42;;;;;;;1999.90;999.90;;;8.70;99.90;;;;;;5052265;28;20200;-72
2022/01/04 00:31:07;;;;;;;1999.90;999.90;;;8.70;99.90;;;;;;5052265;28;20180;-71
2022/01/04 00:33:33;;;;;;;1999.90;999.90;;;8.70;99.90;;;;;;5052341;28;20184;-71
2022/01/04 00:35:59;;;;;;;1999.90;999.90;;;8.70;99.90;;;;;;5051934;28;20176;-72
2022/01/04 00:38:24;;;;;;;1999.90;999.90;;;8.70;99.90;;;;;;5052093;28;20673;-72
2022/01/04 00:40:50;;;;;;;1999.90;999.90;;;8.70;99.90;;;;;;5052099;28;20167;-72
2022/01/04 00:43:15;;;;;;;1999.90;999.90;;;8.70;99.90;;;;;;5052196;28;20638;-71
2022/01/04 00:45:41;;;;;;;1999.90;999.90;;;8.70;99.90;;;;;;5051790;28;20173;-73
2022/01/04 00:50:35;;;;;;;1999.90;999.90;;;8.70;99.90;;;;;;5052058;28;20172;-72
2022/01/04 00:53:02;;;;;;;1999.90;999.90;;;8.60;99.90;;;;;;5052033;28;20497;-72
2022/01/04 00:55:28;;;;;;;1999.90;999.90;;;8.60;99.90;;;;;;5052752;28;20420;-73
2022/01/04 00:57:54;;;;;;;1999.90;999.90;;;8.50;99.90;;;;;;5053253;28;20472;-72
2022/01/04 01:00:20;;;;;;;1999.90;999.90;;;8.50;99.90;;;;;;5054099;28;20422;-72
2022/01/04 01:02:46;;;;;;;1999.90;999.90;;;8.50;99.90;;;;;;5054193;28;20417;-72
2022/01/04 01:05:13;;;;;;;1999.90;999.90;;;8.50;99.90;;;;;;5052869;28;20406;-71
2022/01/04 01:07:40;;;;;;;1999.90;999.90;;;8.50;99.90;;;;;;5053170;28;20420;-72
2022/01/04 01:12:37;;;;;;;1999.90;999.90;;;8.40;99.90;;;;;;5054516;28;20504;-72
2022/01/04 01:15:04;;;;;;;1999.90;999.90;;;8.40;99.90;;;;;;5053034;28;20445;-72
2022/01/04 01:17:30;;;;;;;1999.90;999.90;;;8.40;99.90;;;;;;5053692;28;20260;-73
2022/01/04 01:19:57;;;;;;;1999.90;999.90;;;8.40;99.90;;;;;;5052711;28;20541;-73
2022/01/04 01:22:22;;;;;;;1999.90;999.90;;;8.40;99.90;;;;;;5053466;28;20407;-72
2022/01/04 01:24:48;;;;;;;1999.90;999.90;;;8.40;99.90;;;;;;5053394;28;20825;-73
2022/01/04 01:27:14;;;;;;;1999.90;999.90;;;8.30;99.90;;;;;;5053812;28;20179;-73
2022/01/04 01:29:39;;;;;;;1999.90;999.90;;;8.30;99.90;;;;;;5053232;28;20683;-73
2022/01/04 01:32:05;;;;;;;1999.90;999.90;;;8.30;99.90;;;;;;5051971;28;20260;-70
2022/01/04 01:34:31;;;;;;;1999.90;999.90;;;8.40;99.90;;;;;;5051282;28;20639;-70
2022/01/04 01:36:57;;;;;;;1999.90;999.90;;;8.40;99.90;;;;;;5051499;28;20496;-72
2022/01/04 01:39:22;;;;;;;1999.90;999.90;;;8.40;99.90;;;;;;5051488;28;20195;-69
2022/01/04 01:41:48;;;;;;;1999.90;999.90;;;8.40;99.90;;;;;;5051458;28;20179;-70
2022/01/04 01:44:14;;;;;;;1999.90;999.90;;;8.30;99.90;;;;;;5051153;28;20406;-70
2022/01/04 01:46:39;;;;;;;1999.90;999.90;;;8.30;99.90;;;;;;5051449;28;20175;-70
2022/01/04 01:49:05;;;;;;;1999.90;999.90;;;8.30;99.90;;;;;;5051290;28;20188;-70
2022/01/04 01:51:31;;;;;;;1999.90;999.90;;;8.30;99.90;;;;;;5051451;28;20180;-70
2022/01/04 01:53:58;;;;;;;1999.90;999.90;;;8.30;99.90;;;;;;5051395;28;20255;-73
2022/01/04 01:56:24;;;;;;;1999.90;999.90;;;8.20;99.90;;;;;;5051159;28;20198;-72
2022/01/04 01:58:50;;;;;;;1999.90;999.90;;;8.30;99.90;;;;;;5051744;28;20466;-71
2022/01/04 02:01:16;;;;;;;1999.90;999.90;;;8.30;99.90;;;;;;5052111;28;20406;-72
2022/01/04 02:03:42;;;;;;;1999.90;999.90;;;8.30;99.90;;;;;;5051764;28;20489;-72
2022/01/04 02:06:08;;;;;;;1999.90;999.90;;;8.30;99.90;;;;;;5054319;28;20440;-70
2022/01/04 02:08:34;;;;;;;1999.90;999.90;;;8.30;99.90;;;;;;5054750;28;20226;-71
2022/01/04 02:11:01;;;;;;;1999.90;999.90;;;8.20;99.90;;;;;;5054879;28;20172;-71
2022/01/04 02:13:27;;;;;;;1999.90;999.90;;;8.20;99.90;;;;;;5054805;28;20900;-70
2022/01/04 02:15:53;;;;;;;1999.90;999.90;;;8.20;99.90;;;;;;5054364;28;20414;-71
2022/01/04 02:18:19;;;;;;;1999.90;999.90;;;8.20;99.90;;;;;;5054546;28;20453;-70
2022/01/04 02:20:44;;;;;;;1999.90;999.90;;;8.20;99.90;;;;;;5054643;28;20250;-71
2022/01/04 02:23:10;;;;;;;1999.90;999.90;;;8.20;99.90;;;;;;5054519;28;20200;-70
2022/01/04 02:25:36;;;;;;;1999.90;999.90;;;8.20;99.90;;;;;;5054231;28;20160;-70
2022/01/04 02:28:01;;;;;;;1999.90;999.90;;;8.20;99.90;;;;;;5054422;28;20991;-71
2022/01/04 02:30:27;;;;;;;1999.90;999.90;;;8.20;99.90;;;;;;5054365;28;20167;-71
2022/01/04 02:32:53;;;;;;;1999.90;999.90;;;8.10;99.90;;;;;;5054516;28;20171;-71
2022/01/04 02:35:25;;;;;;;1999.90;999.90;;;8.20;99.90;;;;;;5054088;28;20416;-71
2022/01/04 02:37:56;;;;;;;1999.90;999.90;;;8.20;99.90;;;;;;5054287;28;20449;-71
2022/01/04 02:40:22;;;;;;;1999.90;999.90;;;8.30;99.90;;;;;;5054318;28;20493;-71
2022/01/04 02:42:47;;;;;;;1999.90;999.90;;;8.30;99.90;;;;;;5054207;28;20434;-71
2022/01/04 02:45:13;;;;;;;1999.90;999.90;;;8.30;99.90;;;;;;5053779;28;20823;-71
2022/01/04 02:47:39;;;;;;;1999.90;999.90;;;8.30;99.90;;;;;;5054190;28;20562;-70
2022/01/04 02:50:06;;;;;;;1999.90;999.90;;;8.30;99.90;;;;;;5054061;28;20191;-70
2022/01/04 02:52:33;;;;;;;1999.90;999.90;;;8.20;99.90;;;;;;5054049;28;20428;-69
2022/01/04 02:55:00;;;;;;;1999.90;999.90;;;8.20;99.90;;;;;;5053892;28;20450;-69
2022/01/04 02:57:25;;;;;;;1999.90;999.90;;;8.30;99.90;;;;;;5053846;28;20490;-70
2022/01/04 02:59:51;;;;;;;1999.90;999.90;;;8.30;99.90;;;;;;5053981;28;20449;-70
2022/01/04 03:02:17;;;;;;;1999.90;999.90;;;8.30;99.90;;;;;;5053931;28;20168;-71
2022/01/04 03:04:42;;;;;;;1999.90;999.90;;;8.30;99.90;;;;;;5053747;28;20691;-69
2022/01/04 03:07:08;;;;;;;1999.90;999.90;;;8.20;99.90;;;;;;5053782;28;20524;-70
2022/01/04 03:09:34;;;;;;;1999.90;999.90;;;8.20;99.90;;;;;;5053798;28;20271;-70
2022/01/04 03:11:59;;;;;;;1999.90;999.90;;;8.20;99.90;;;;;;5053744;28;20172;-70
2022/01/04 03:14:25;;;;;;;1999.90;999.90;;;8.20;99.90;;;;;;5053351;28;20177;-71
2022/01/04 03:16:50;;;;;;;1999.90;999.90;;;8.10;99.90;;;;;;5053757;28;20586;-70
2022/01/04 03:19:16;;;;;;;1999.90;999.90;;;8.10;99.90;;;;;;5053502;28;20187;-70
2022/01/04 03:21:43;;;;;;;1999.90;999.90;;;8.10;99.90;;;;;;5053446;28;20639;-70
2022/01/04 03:24:11;;;;;;;1999.90;999.90;;;8.20;99.90;;;;;;5053164;28;20168;-70
2022/01/04 03:26:37;;;;;;;1999.90;999.90;;;8.10;99.90;;;;;;5053482;28;20417;-70
2022/01/04 03:29:06;;;;;;;1999.90;999.90;;;8.10;99.90;;;;;;5053250;28;21178;-70
2022/01/04 03:31:32;;;;;;;1999.90;999.90;;;8.00;99.90;;;;;;5053302;28;20557;-70
2022/01/04 03:33:57;;;;;;;1999.90;999.90;;;8.00;99.90;;;;;;5053262;28;20484;-71
2022/01/04 03:36:24;;;;;;;1999.90;999.90;;;8.00;99.90;;;;;;5053053;28;20811;-70
2022/01/04 03:38:54;;;;;;;1999.90;999.90;;;8.00;99.90;;;;;;5053127;28;20242;-70
2022/01/04 03:41:21;;;;;;;1999.90;999.90;;;8.00;99.90;;;;;;5053133;28;20460;-70
2022/01/04 03:43:48;;;;;;;1999.90;999.90;;;7.90;99.90;;;;;;5053044;28;20804;-70
2022/01/04 03:46:13;;;;;;;1999.90;999.90;;;7.90;99.90;;;;;;5052821;28;20460;-70
2022/01/04 03:48:39;;;;;;;1999.90;999.90;;;7.90;99.90;;;;;;5053105;28;20426;-72
2022/01/04 03:51:07;;;;;;;1999.90;999.90;;;7.90;99.90;;;;;;5053086;28;20184;-70
2022/01/04 03:53:34;;;;;;;1999.90;999.90;;;7.80;99.90;;;;;;5052949;28;20699;-70
2022/01/04 03:56:00;;;;;;;1999.90;999.90;;;7.80;99.90;;;;;;5052606;28;20437;-70
2022/01/04 03:58:25;;;;;;;1999.90;999.90;;;7.80;99.90;;;;;;5052515;28;20470;-70
2022/01/04 04:00:51;;;;;;;1999.90;999.90;;;7.80;99.90;;;;;;5052767;28;20413;-70
2022/01/04 04:03:17;;;;;;;1999.90;999.90;;;7.80;99.90;;;;;;5052762;28;20186;-70
2022/01/04 04:05:42;;;;;;;1999.90;999.90;;;7.80;99.90;;;;;;5052316;28;20635;-70
2022/01/04 04:08:08;;;;;;;1999.90;999.90;;;7.80;99.90;;;;;;5052559;28;20572;-70
2022/01/04 04:10:34;;;;;;;1999.90;999.90;;;7.80;99.90;;;;;;5052519;28;20171;-70
2022/01/04 04:13:00;;;;;;;1999.90;999.90;;;7.80;99.90;;;;;;5052561;28;20957;-70
2022/01/04 04:15:25;;;;;;;1999.90;999.90;;;7.70;99.90;;;;;;5052365;28;20516;-70
2022/01/04 04:17:51;;;;;;;1999.90;999.90;;;7.80;99.90;;;;;;5052768;28;20577;-70
2022/01/04 04:20:17;;;;;;;1999.90;999.90;;;7.80;99.90;;;;;;5052346;28;20168;-69
2022/01/04 04:22:42;;;;;;;1999.90;999.90;;;7.80;99.90;;;;;;5052818;28;20746;-72
2022/01/04 04:25:08;;;;;;;1999.90;999.90;;;7.90;99.90;;;;;;5053423;28;20497;-72
2022/01/04 04:27:34;;;;;;;1999.90;999.90;;;7.90;99.90;;;;;;5053754;28;20172;-72
2022/01/04 04:30:00;;;;;;;1999.90;999.90;;;7.90;99.90;;;;;;5054456;28;20518;-71
2022/01/04 04:32:25;;;;;;;1999.90;999.90;;;7.90;99.90;;;;;;5053980;28;20176;-72
2022/01/04 04:34:51;;;;;;;1999.90;999.90;;;8.00;99.90;;;;;;5053507;28;20310;-71
2022/01/04 04:37:17;;;;;;;1999.90;999.90;;;7.90;99.90;;;;;;5053809;28;20195;-70
2022/01/04 04:39:42;;;;;;;1999.90;999.90;;;7.90;99.90;;;;;;5053573;28;20183;-72
2022/01/04 04:42:08;;;;;;;1999.90;999.90;;;7.90;99.90;;;;;;5053540;28;20225;-70
2022/01/04 04:44:34;;;;;;;1999.90;999.90;;;7.90;99.90;;;;;;5052588;28;20644;-72
2022/01/04 04:47:00;;;;;;;1999.90;999.90;;;7.90;99.90;;;;;;5052318;28;20168;-71
2022/01/04 04:49:25;;;;;;;1999.90;999.90;;;7.90;99.90;;;;;;5052002;28;20191;-70
2022/01/04 04:51:51;;;;;;;1999.90;999.90;;;7.80;99.90;;;;;;5052014;28;20687;-71
2022/01/04 04:54:17;;;;;;;1999.90;999.90;;;7.80;99.90;;;;;;5051682;28;20819;-71
2022/01/04 04:56:42;;;;;;;1999.90;999.90;;;7.80;99.90;;;;;;5051866;28;20237;-71
2022/01/04 04:59:09;;;;;;;1999.90;999.90;;;7.80;99.90;;;;;;5051960;28;20694;-72
2022/01/04 05:01:36;;;;;;;1999.90;999.90;;;7.80;99.90;;;;;;5052162;28;20581;-70
2022/01/04 05:04:02;;;;;;;1999.90;999.90;;;7.70;99.90;;;;;;5051558;28;20413;-70
2022/01/04 05:06:28;;;;;;;1999.90;999.90;;;7.70;99.90;;;;;;5051797;28;20444;-71
2022/01/04 05:08:53;;;;;;;1999.90;999.90;;;7.70;99.90;;;;;;5051741;28;20525;-70
2022/01/04 05:11:19;;;;;;;1999.90;999.90;;;7.70;99.90;;;;;;5052031;28;20229;-72
2022/01/04 05:13:45;;;;;;;1999.90;999.90;;;7.70;99.90;;;;;;5052326;28;20179;-72
2022/01/04 05:16:11;;;;;;;1999.90;999.90;;;7.70;99.90;;;;;;5052251;28;20172;-72
2022/01/04 05:18:37;;;;;;;1999.90;999.90;;;7.70;99.90;;;;;;5052140;28;20462;-71
2022/01/04 05:21:03;;;;;;;1999.90;999.90;;;7.70;99.90;;;;;;5051712;28;20398;-71
2022/01/04 05:23:29;;;;;;;1999.90;999.90;;;7.60;99.90;;;;;;5051618;28;20406;-71
2022/01/04 05:25:55;;;;;;;1999.90;999.90;;;7.60;99.90;;;;;;5051434;28;20405;-70
2022/01/04 05:28:20;;;;;;;1999.90;999.90;;;7.60;99.90;;;;;;5051496;28;20429;-70
2022/01/04 05:30:46;;;;;;;1999.90;999.90;;;7.60;99.90;;;;;;5051604;28;20198;-69
2022/01/04 05:33:12;;;;;;;1999.90;999.90;;;7.60;99.90;;;;;;5051499;28;20168;-71
2022/01/04 05:35:37;;;;;;;1999.90;999.90;;;7.50;99.90;;;;;;5051248;28;20179;-71
2022/01/04 05:38:03;;;;;;;1999.90;999.90;;;7.50;99.90;;;;;;5054340;28;20203;-70
2022/01/04 05:40:28;;;;;;;1999.90;999.90;;;7.50;99.90;;;;;;5058598;28;20228;-71
2022/01/04 05:42:54;;;;;;;1999.90;999.90;;;7.60;99.90;;;;;;5059211;28;20255;-70
2022/01/04 05:45:20;;;;;;;1999.90;999.90;;;7.60;99.90;;;;;;5059233;28;20168;-70
2022/01/04 05:47:46;;;;;;;1999.90;999.90;;;7.60;99.90;;;;;;5059829;28;20187;-70
2022/01/04 05:50:11;;;;;;;1999.90;999.90;;;7.60;99.90;;;;;;5059552;28;20168;-70
2022/01/04 05:52:37;;;;;;;1999.90;999.90;;;7.70;99.90;;;;;;5057053;28;20410;-70
2022/01/04 05:55:03;;;;;;;1999.90;999.90;;;7.80;99.90;;;;;;5055391;28;20190;-69
2022/01/04 05:57:29;;;;;;;1999.90;999.90;;;7.80;99.90;;;;;;5055170;28;20238;-70
2022/01/04 05:59:55;;;;;;;1999.90;999.90;;;7.80;99.90;;;;;;5055129;28;20465;-70
2022/01/04 06:02:20;;;;;;;1999.90;999.90;;;7.90;99.90;;;;;;5055262;28;20187;-70
2022/01/04 06:04:46;;;;;;;1999.90;999.90;;;7.90;99.90;;;;;;5054823;28;20596;-70
2022/01/04 06:07:11;;;;;;;1999.90;999.90;;;7.90;99.90;;;;;;5054884;28;20258;-70
2022/01/04 06:09:43;;;;;;;1999.90;999.90;;;7.90;99.90;;;;;;5054800;28;20245;-70
2022/01/04 06:14:54;;;;;;;1999.90;999.90;;;8.00;99.90;;;;;;5054721;28;20398;-70
2022/01/04 06:17:25;;;;;;;1999.90;999.90;;;8.00;99.90;;;;;;5054536;28;20453;-70
2022/01/04 06:19:51;;;;;;;1999.90;999.90;;;8.00;99.90;;;;;;5054647;28;20941;-70
2022/01/04 06:22:16;;;;;;;1999.90;999.90;;;8.00;99.90;;;;;;5054651;28;20505;-70
2022/01/04 06:24:42;;;;;;;1999.90;999.90;;;8.10;99.90;;;;;;5054339;28;20176;-70
2022/01/04 06:27:08;;;;;;;1999.90;999.90;;;8.10;99.90;;;;;;5054922;28;20187;-71
2022/01/04 06:29:35;;;;;;;1999.90;999.90;;;8.10;99.90;;;;;;5056808;28;20267;-71
2022/01/04 06:32:01;;;;;;;1999.90;999.90;;;8.10;99.90;;;;;;5057445;28;20414;-70
2022/01/04 06:34:27;;;;;;;1999.90;999.90;;;8.00;99.90;;;;;;5054106;28;20404;-70
2022/01/04 06:36:52;;;;;;;1999.90;999.90;;;8.00;99.90;;;;;;5054246;28;20398;-71
2022/01/04 06:39:18;;;;;;;1999.90;999.90;;;7.90;99.90;;;;;;5054257;28;20183;-70
2022/01/04 06:41:44;;;;;;;1999.90;999.90;;;7.90;99.90;;;;;;5054424;28;20598;-71
2022/01/04 06:44:09;;;;;;;1999.90;999.90;;;7.90;99.90;;;;;;5055256;28;20191;-72
2022/01/04 06:46:35;;;;;;;1999.90;999.90;;;7.90;99.90;;;;;;5057256;28;20618;-71
2022/01/04 06:49:01;;;;;;;1999.90;999.90;;;7.90;99.90;;;;;;5057241;28;20195;-72
2022/01/04 06:51:27;;;;;;;1999.90;999.90;;;7.90;99.90;;;;;;5056516;28;20898;-72
2022/01/04 06:53:52;;;;;;;1999.90;999.90;;;7.80;99.90;;;;;;5057513;28;20172;-71
2022/01/04 06:56:18;;;;;;;1999.90;999.90;;;7.80;99.90;;;;;;5056750;28;20172;-71
2022/01/04 06:58:43;;;;;;;1999.90;999.90;;;7.90;99.90;;;;;;5056939;28;20269;-72
2022/01/04 07:01:09;;;;;;;1999.90;999.90;;;8.00;99.90;;;;;;5056575;28;20179;-72
2022/01/04 07:03:35;;;;;;;1999.90;999.90;;;8.00;99.90;;;;;;5057172;28;20178;-71
2022/01/04 07:06:00;;;;;;;1999.90;999.90;;;8.00;99.90;;;;;;5056248;28;20168;-70
2022/01/04 07:08:26;;;;;;;1999.90;999.90;;;8.00;99.90;;;;;;5056798;28;20204;-72
2022/01/04 07:10:52;;;;;;;1999.90;999.90;;;8.00;99.90;;;;;;5056672;28;20184;-72
2022/01/04 07:13:18;;;;;;;1999.90;999.90;;;7.90;99.90;;;;;;5056556;28;20196;-71
2022/01/04 07:15:45;;;;;;;1999.90;999.90;;;8.00;99.90;;;;;;5055577;28;20193;-71
2022/01/04 07:18:11;;;;;;;1999.90;999.90;;;8.10;99.90;;;;;;5055686;28;20501;-70
2022/01/04 07:20:37;;;;;;;1999.90;999.90;;;8.10;99.90;;;;;;5053482;28;20434;-70
2022/01/04 07:23:02;;;;;;;1999.90;999.90;;;8.20;99.90;;;;;;5053536;28;20168;-70
2022/01/04 07:25:28;;;;;;;1999.90;999.90;;;8.20;99.90;;;;;;5053358;28;20636;-70
2022/01/04 07:27:54;;;;;;;1999.90;999.90;;;8.30;99.90;;;;;;5053365;28;20165;-70
2022/01/04 07:30:19;;;;;;;1999.90;999.90;;;8.30;99.90;;;;;;5053356;28;20637;-70
2022/01/04 07:32:45;;;;;;;1999.90;999.90;;;8.30;99.90;;;;;;5053238;28;20222;-70
2022/01/04 07:35:11;;;;;;;1999.90;999.90;;;8.30;99.90;;;;;;5053240;28;20677;-70
2022/01/04 07:37:36;;;;;;;1999.90;999.90;;;8.20;99.90;;;;;;5053154;28;20188;-70
2022/01/04 07:40:03;;;;;;;1999.90;999.90;;;8.20;99.90;;;;;;5053137;28;20195;-70
2022/01/04 07:42:29;;;;;;;1999.90;999.90;;;8.10;99.90;;;;;;5053022;28;20203;-70
2022/01/04 07:44:54;;;;;;;1999.90;999.90;;;8.10;99.90;;;;;;5052812;28;20785;-69
2022/01/04 07:47:20;;;;;;;1999.90;999.90;;;8.00;99.90;;;;;;5053013;28;20170;-70
2022/01/04 07:49:45;;;;;;;1999.90;999.90;;;8.00;99.90;;;;;;5052957;28;20195;-70
2022/01/04 07:52:11;;;;;;;1999.90;999.90;;;8.10;99.90;;;;;;5052956;28;20203;-70
2022/01/04 07:54:37;;;;;;;1999.90;999.90;;;8.10;99.90;;;;;;5052619;28;20174;-69
2022/01/04 07:57:02;;;;;;;1999.90;999.90;;;8.00;99.90;;;;;;5052769;28;20610;-70
2022/01/04 07:59:29;;;;;;;1999.90;999.90;;;8.00;99.90;;;;;;5052635;28;20175;-70
2022/01/04 08:01:55;;;;;;;1999.90;999.90;;;8.00;99.90;;;;;;5052237;28;20274;-69
2022/01/04 08:04:21;;;;;;;1999.90;999.90;;;8.10;99.90;;;;;;5052269;28;20410;-69
2022/01/04 08:06:47;;;;;;;1999.90;999.90;;;8.10;99.90;;;;;;5052683;28;20645;-70
2022/01/04 08:09:12;;;;;;;1999.90;999.90;;;8.00;99.90;;;;;;5052615;28;20426;-70
2022/01/04 08:11:38;;;;;;;1999.90;999.90;;;7.90;99.90;;;;;;5052652;28;20596;-69
2022/01/04 08:14:04;;;;;;;1999.90;999.90;;;7.80;99.90;;;;;;5052407;28;20167;-70
2022/01/04 08:16:29;;;;;;;1999.90;999.90;;;7.80;99.90;;;;;;5052435;28;20660;-69
2022/01/04 08:18:55;;;;;;;1999.90;999.90;;;7.80;99.90;;;;;;5052746;28;20199;-71
2022/01/04 08:21:20;;;;;;;1999.90;999.90;;;7.80;99.90;;;;;;5052759;28;20161;-70
2022/01/04 08:23:46;;;;;;;1999.90;999.90;;;7.80;99.90;;;;;;5052365;28;20211;-71
2022/01/04 08:26:11;;;;;;;1999.90;999.90;;;7.70;99.90;;;;;;5052057;28;20172;-70
2022/01/04 08:28:37;;;;;;;1999.90;999.90;;;7.80;99.90;;;;;;5052218;28;20195;-70
2022/01/04 08:31:03;;;;;;;1999.90;999.90;;;7.80;99.90;;;;;;5052136;28;20176;-70
2022/01/04 08:33:29;;;;;;;1999.90;999.90;;;7.90;99.90;;;;;;5052519;28;20181;-70
2022/01/04 08:35:54;;;;;;;1999.90;999.90;;;7.90;99.90;;;;;;5051893;28;20414;-71
2022/01/04 08:38:21;;;;;;;1999.90;999.90;;;7.90;99.90;;;;;;5052040;28;20294;-70
2022/01/04 08:40:46;;;;;;;1999.90;999.90;;;8.00;99.90;;;;;;5052188;28;20176;-71
2022/01/04 08:43:12;;;;;;;1999.90;999.90;;;8.10;99.90;;;;;;5052099;28;20444;-70
2022/01/04 08:45:37;;;;;;;1999.90;999.90;;;8.10;99.90;;;;;;5051674;28;20669;-69
2022/01/04 08:48:04;;;;;;;1999.90;999.90;;;8.10;99.90;;;;;;5052019;28;20200;-70
2022/01/04 08:50:30;;;;;;;1999.90;999.90;;;8.10;99.90;;;;;;5052036;28;20178;-70
2022/01/04 08:52:56;;;;;;;1999.90;999.90;;;8.10;99.90;;;;;;5051979;28;20398;-70
2022/01/04 08:55:24;;;;;;;1999.90;999.90;;;8.10;99.90;;;;;;5051663;28;20215;-70
2022/01/04 08:57:50;;;;;;;1999.90;999.90;;;8.10;99.90;;;;;;5051741;28;20461;-70
2022/01/04 09:00:17;;;;;;;1999.90;999.90;;;8.20;99.90;;;;;;5051774;28;20965;-69
2022/01/04 09:02:45;;;;;;;1999.90;999.90;;;8.20;99.90;;;;;;5051962;28;20169;-70
2022/01/04 09:05:12;;;;;;;1999.90;999.90;;;8.20;99.90;;;;;;5051631;28;20440;-70
2022/01/04 09:07:38;;;;;;;1999.90;999.90;;;8.10;99.90;;;;;;5051798;28;20485;-70
2022/01/04 09:10:05;;;;;;;1999.90;999.90;;;8.10;99.90;;;;;;5051677;28;20427;-70
2022/01/04 09:15:27;;;;;;;1999.90;999.90;;;8.10;99.90;;;;;;5055115;28;20405;-70
2022/01/04 09:20:36;;;;;;;1999.90;999.90;;;8.00;99.90;;;;;;5055811;28;20491;-69
2022/01/04 09:23:01;;;;;;;1999.90;999.90;;;8.00;99.90;;;;;;5055724;28;20402;-70
2022/01/04 09:25:27;;;;;;;1999.90;999.90;;;8.00;99.90;;;;;;5055450;28;20635;-70
2022/01/04 09:27:53;;;;;;;1999.90;999.90;;;8.10;99.90;;;;;;5055541;28;20406;-69
2022/01/04 09:30:18;;;;;;;1999.90;999.90;;;8.10;99.90;;;;;;5055620;28;20535;-70
2022/01/04 09:32:44;;;;;;;1999.90;999.90;;;8.10;99.90;;;;;;5055670;28;20171;-71
2022/01/04 09:35:12;;;;;;;1999.90;999.90;;;8.20;99.90;;;;;;5055310;28;20167;-69
2022/01/04 09:37:38;;;;;;;1999.90;999.90;;;8.30;99.90;;;;;;5052405;28;20187;-69
2022/01/04 09:40:04;;;;;;;1999.90;999.90;;;8.20;99.90;;;;;;5052788;28;20429;-70
2022/01/04 09:42:30;;;;;;;1999.90;999.90;;;8.20;99.90;;;;;;5054035;28;20440;-70
2022/01/04 09:44:56;;;;;;;1999.90;999.90;;;8.10;99.90;;;;;;5053460;28;20408;-70
2022/01/04 09:47:22;;;;;;;1999.90;999.90;;;8.10;99.90;;;;;;5054222;28;20497;-69
2022/01/04 09:49:48;;;;;;;1999.90;999.90;;;8.00;99.90;;;;;;5054250;28;20196;-70
2022/01/04 09:52:19;;;;;;;1999.90;999.90;;;7.90;99.90;;;;;;5053488;28;20438;-70
2022/01/04 09:54:46;;;;;;;1999.90;999.90;;;7.80;99.90;;;;;;5053139;28;20892;-70
2022/01/04 09:57:16;;;;;;;1999.90;999.90;;;7.80;99.90;;;;;;5053614;28;20441;-68
2022/01/04 09:59:41;;;;;;;1999.90;999.90;;;7.80;99.90;;;;;;5052227;28;20430;-69
2022/01/04 10:02:18;;;;;;;1999.90;999.90;;;7.80;99.90;;;;;;5053662;28;20493;-69
2022/01/04 10:04:45;;;;;;;1999.90;999.90;;;7.90;99.90;;;;;;5053394;28;20167;-69
2022/01/04 10:07:11;;;;;;;1999.90;999.90;;;8.00;99.90;;;;;;5053033;28;20415;-70
2022/01/04 10:09:45;;;;;;;1999.90;999.90;;;8.00;99.90;;;;;;5054073;28;20426;-69
2022/01/04 10:12:13;;;;;;;1999.90;999.90;;;8.00;99.90;;;;;;5053884;28;20926;-70
2022/01/04 10:14:41;;;;;;;1999.90;999.90;;;7.90;99.90;;;;;;5052979;28;20406;-70
2022/01/04 10:17:28;;;;;;;1999.90;999.90;;;8.00;99.90;;;;;;5054541;28;20417;-69
2022/01/04 10:19:57;;;;;;;1999.90;999.90;;;8.00;99.90;;;;;;5053703;28;20464;-70
2022/01/04 10:22:31;;;;;;;1999.90;999.90;;;8.00;99.90;;;;;;5053955;28;20771;-70
2022/01/04 10:25:03;;;;;;;1999.90;999.90;;;8.00;99.90;;;;;;5052378;28;20406;-67
2022/01/04 10:27:47;;;;;;;1999.90;999.90;;;8.00;99.90;;;;;;5053651;28;20779;-67
2022/01/04 10:30:22;;;;;;;1999.90;999.90;;;8.00;99.90;;;;;;5052742;28;20409;-66
2022/01/04 10:32:54;;;;;;;1999.90;999.90;;;8.00;99.90;;;;;;5053432;28;20413;-69
2022/01/04 10:35:34;;;;;;;1999.90;999.90;;;8.10;99.90;;;;;;5053647;28;20398;-70
2022/01/04 10:38:09;;;;;;;1999.90;999.90;;;8.10;99.90;;;;;;5051853;28;20471;-70
2022/01/04 10:40:35;;;;;;;1999.90;999.90;;;8.10;99.90;;;;;;5053320;28;20409;-68
2022/01/04 10:43:31;;;;;;;1999.90;999.90;;;8.20;99.90;;;;;;5053174;28;20417;-68
2022/01/04 10:45:58;;;;;;;1999.90;999.90;;;8.20;99.90;;;;;;5051950;28;20507;-67
2022/01/04 10:48:29;;;;;;;1999.90;999.90;;;8.20;99.90;;;;;;5048409;28;20449;-68
2022/01/04 10:50:57;;;;;;;1999.90;999.90;;;8.20;99.90;;;;;;5044005;28;20887;-68
2022/01/04 10:53:32;;;;;;;1999.90;999.90;;;8.30;99.90;;;;;;5051948;28;20467;-70
2022/01/04 10:56:10;;;;;;;1999.90;999.90;;;8.30;99.90;;;;;;5043968;28;20411;-69
2022/01/04 10:58:38;;;;;;;1999.90;999.90;;;8.30;99.90;;;;;;5052430;28;20504;-68
2022/01/04 11:01:12;;;;;;;1999.90;999.90;;;8.20;99.90;;;;;;5052399;28;20420;-68
2022/01/04 11:03:43;;;;;;;1999.90;999.90;;;8.30;99.90;;;;;;5052309;28;20456;-68
2022/01/04 11:06:23;;;;;;;1999.90;999.90;;;8.40;99.90;;;;;;5051959;28;20402;-69
2022/01/04 11:08:49;;;;;;;1999.90;999.90;;;8.40;99.90;;;;;;5050822;28;20805;-70
2022/01/04 11:11:15;;;;;;;1999.90;999.90;;;8.40;99.90;;;;;;5052257;28;20422;-70
2022/01/04 11:13:41;;;;;;;1999.90;999.90;;;8.40;99.90;;;;;;5051675;28;20446;-69
2022/01/04 11:16:07;;;;;;;1999.90;999.90;;;8.30;99.90;;;;;;5051776;28;20176;-69
2022/01/04 11:18:34;;;;;;;1999.90;999.90;;;8.40;99.90;;;;;;5051866;28;20462;-69
2022/01/04 11:21:01;;;;;;;1999.90;999.90;;;8.40;99.90;;;;;;5051828;28;20420;-69
2022/01/04 11:23:32;;;;;;;1999.90;999.90;;;8.40;99.90;;;;;;5051728;28;20407;-70
2022/01/04 11:26:00;;;;;;;1999.90;999.90;;;8.40;99.90;;;;;;5050520;28;20488;-68
2022/01/04 11:28:27;;;;;;;1999.90;999.90;;;8.30;99.90;;;;;;5051496;28;20449;-69
2022/01/04 11:31:14;;;;;;;1999.90;999.90;;;8.30;99.90;;;;;;5051186;28;20414;-68
2022/01/04 11:34:01;;;;;;;1999.90;999.90;;;8.40;99.90;;;;;;5051656;28;20433;-69
2022/01/04 11:36:29;;;;;;;1999.90;999.90;;;8.40;99.90;;;;;;5050888;28;20402;-68
2022/01/04 11:38:55;;;;;;;1999.90;999.90;;;8.30;99.90;;;;;;5050573;28;20487;-70
2022/01/04 11:41:33;;;;;;;1999.90;999.90;;;8.40;99.90;;;;;;5050932;28;20483;-68
2022/01/04 11:44:19;;;;;;;1999.90;999.90;;;8.30;99.90;;;;;;5051012;28;20417;-68
2022/01/04 11:47:01;;;;;;;1999.90;999.90;;;8.30;99.90;;;;;;5051569;28;20457;-69
2022/01/04 11:49:27;;;;;;;1999.90;999.90;;;8.40;99.90;;;;;;5048767;28;20438;-69
2022/01/04 11:51:52;;;;;;;1999.90;999.90;;;8.40;99.90;;;;;;5048500;28;20402;-69
2022/01/04 11:54:30;;;;;;;1999.90;999.90;;;8.50;99.90;;;;;;5049202;28;20168;-69
2022/01/04 11:57:02;;;;;;;1999.90;999.90;;;8.50;99.90;;;;;;5045388;28;20245;-68
2022/01/04 11:59:57;;;;;;;1999.90;999.90;;;8.60;99.90;;;;;;5041575;28;20444;-68
2022/01/04 12:02:32;;;;;;;1999.90;999.90;;;8.60;99.90;;;;;;5042452;28;20470;-69
2022/01/04 12:05:04;;;;;;;1999.90;999.90;;;8.60;99.90;;;;;;5050734;28;20398;-68
2022/01/04 12:07:38;;;;;;;1999.90;999.90;;;8.60;99.90;;;;;;5050101;28;20398;-68
2022/01/04 12:10:27;;;;;;;1999.90;999.90;;;8.60;99.90;;;;;;5050737;28;20532;-68
2022/01/04 12:12:57;;;;;;;1999.90;999.90;;;8.70;99.90;;;;;;5047086;28;20500;-69
2022/01/04 12:15:37;;;;;;;1999.90;999.90;;;8.60;99.90;;;;;;5050545;28;21042;-69
2022/01/04 12:18:27;;;;;;;1999.90;999.90;;;8.70;99.90;;;;;;5050327;28;20536;-70
2022/01/04 12:20:57;;;;;;;1999.90;999.90;;;8.60;99.90;;;;;;5040075;28;20919;-69
2022/01/04 12:23:31;;;;;;;1999.90;999.90;;;8.60;99.90;;;;;;5050439;28;20980;-68